Time;durP1;ratioP1;P1;durP2;ratioP2;P2;SDS_P1;SDS_P2;PMS_P1;PMS_P2;Temp;Humidity;BMP_temperature;BMP_pressure;BME280_temperature;BME280_humidity;BME280_pressure;Samples;Min_cycle;Max_cycle;Signal;HPM_P1;HPM_P2
2024/01/23 00:00:28;;;;;;;13.60;3.50;;;6.20;1.00;;;;;;5036287;28;20579;-81
2024/01/23 00:02:54;;;;;;;19.33;4.40;;;6.30;1.00;;;;;;5033153;28;20204;-82
2024/01/23 00:05:21;;;;;;;20.10;3.70;;;6.40;1.00;;;;;;5034823;28;20219;-80
2024/01/23 00:07:49;;;;;;;13.80;3.47;;;6.40;73.90;;;;;;5032744;28;20224;-81
2024/01/23 00:10:17;;;;;;;14.57;3.60;;;6.40;1.00;;;;;;5040688;28;20680;-80
2024/01/23 00:12:45;;;;;;;13.77;3.60;;;6.50;1.00;;;;;;5034752;28;20196;-81
2024/01/23 00:15:12;;;;;;;17.40;4.50;;;6.60;99.90;;;;;;5032769;28;20223;-80
2024/01/23 00:17:38;;;;;;;20.60;3.50;;;6.70;1.00;;;;;;5032020;28;20290;-81
2024/01/23 00:20:06;;;;;;;16.57;3.67;;;6.60;1.00;;;;;;5032658;28;20208;-82
2024/01/23 00:22:32;;;;;;;10.47;2.93;;;6.60;1.00;;;;;;5041365;28;20654;-80
2024/01/23 00:24:59;;;;;;;12.23;3.13;;;6.50;1.00;;;;;;5040321;28;20223;-82
2024/01/23 00:27:26;;;;;;;8.23;2.77;;;6.50;1.00;;;;;;5036676;28;20210;-80
2024/01/23 00:29:54;;;;;;;10.27;2.50;;;6.50;1.00;;;;;;5046557;28;20223;-81
2024/01/23 00:32:23;;;;;;;8.10;1.90;;;6.40;1.00;;;;;;5039075;28;20702;-79
2024/01/23 00:34:50;;;;;;;7.77;2.23;;;6.40;1.00;;;;;;5029533;28;20293;-82
2024/01/23 00:37:17;;;;;;;7.03;2.73;;;6.40;1.00;;;;;;5032465;28;20211;-82
2024/01/23 00:39:45;;;;;;;9.40;2.67;;;6.30;1.00;;;;;;5036119;28;20211;-84
2024/01/23 00:42:12;;;;;;;11.30;3.07;;;6.40;1.00;;;;;;5040774;28;20466;-80
2024/01/23 00:44:38;;;;;;;4.40;2.17;;;6.30;1.00;;;;;;5035733;28;20214;-82
2024/01/23 00:47:07;;;;;;;8.30;2.40;;;6.20;99.90;;;;;;5030500;28;20265;-81
2024/01/23 00:49:33;;;;;;;11.07;2.83;;;6.20;99.90;;;;;;5035542;28;20219;-81
2024/01/23 00:52:00;;;;;;;5.00;2.00;;;6.20;1.00;;;;;;5038799;28;20210;-81
2024/01/23 00:54:27;;;;;;;2.87;1.50;;;6.10;25.50;;;;;;5038575;28;20196;-80
2024/01/23 00:56:54;;;;;;;9.00;2.23;;;6.10;1.00;;;;;;5034613;28;20226;-81
2024/01/23 00:59:20;;;;;;;4.77;1.77;;;6.00;1.00;;;;;;5034017;28;20567;-80
2024/01/23 01:01:47;;;;;;;8.93;1.70;;;6.00;1.00;;;;;;5032966;28;20210;-81
2024/01/23 01:04:15;;;;;;;2.97;1.53;;;5.90;1.00;;;;;;5037005;28;20209;-80
2024/01/23 01:06:42;;;;;;;2.83;1.20;;;5.80;1.00;;;;;;5032330;28;20224;-83
2024/01/23 01:09:09;;;;;;;4.20;1.20;;;5.80;1.00;;;;;;5034773;28;20586;-82
2024/01/23 01:11:35;;;;;;;5.30;1.20;;;5.70;1.00;;;;;;5033835;28;20203;-83
2024/01/23 01:14:02;;;;;;;7.67;1.50;;;5.70;1.00;;;;;;5030322;28;20209;-82
2024/01/23 01:16:29;;;;;;;5.37;2.00;;;5.60;1.00;;;;;;5034067;28;20229;-81
2024/01/23 01:18:57;;;;;;;6.13;1.20;;;5.60;1.00;;;;;;5033720;28;20651;-83
2024/01/23 01:21:26;;;;;;;2.17;0.93;;;5.50;1.00;;;;;;5032566;28;20203;-81
2024/01/23 01:23:53;;;;;;;3.23;1.13;;;5.40;1.00;;;;;;5033763;28;20200;-82
2024/01/23 01:26:19;;;;;;;2.23;1.00;;;5.40;1.00;;;;;;5032817;28;20270;-82
2024/01/23 01:28:46;;;;;;;2.00;1.23;;;5.50;1.00;;;;;;5038283;28;20277;-81
2024/01/23 01:31:13;;;;;;;3.47;0.90;;;5.40;1.00;;;;;;5046880;28;20199;-80
2024/01/23 01:33:40;;;;;;;5.90;1.53;;;5.30;1.00;;;;;;5038573;28;20203;-80
2024/01/23 01:36:08;;;;;;;4.20;1.10;;;5.20;99.90;;;;;;5049040;28;20227;-82
2024/01/23 01:38:36;;;;;;;3.03;1.10;;;5.20;99.90;;;;;;5040811;28;20212;-82
2024/01/23 01:41:03;;;;;;;5.60;1.40;;;5.10;1.00;;;;;;5033816;28;20209;-80
2024/01/23 01:43:31;;;;;;;6.97;1.57;;;5.10;99.90;;;;;;5039002;28;20204;-82
2024/01/23 01:46:12;;;;;;;3.73;1.37;;;5.20;99.90;;;;;;5040372;28;20223;-82
2024/01/23 01:48:39;;;;;;;8.60;1.53;;;5.30;99.90;;;;;;5038674;28;20219;-83
2024/01/23 01:51:06;;;;;;;10.77;1.83;;;5.30;99.90;;;;;;5044584;28;20675;-81
2024/01/23 01:53:34;;;;;;;4.07;1.70;;;5.40;1.00;;;;;;5038386;28;20199;-82
2024/01/23 01:56:03;;;;;;;9.60;1.70;;;5.50;1.00;;;;;;5044055;28;20230;-82
2024/01/23 01:58:32;;;;;;;9.40;1.80;;;5.80;99.90;;;;;;5038549;28;20208;-82
2024/01/23 02:00:59;;;;;;;10.17;2.10;;;5.70;99.90;;;;;;5037969;28;20203;-80
2024/01/23 02:03:27;;;;;;;12.10;2.37;;;5.70;1.00;;;;;;5039223;28;20204;-80
2024/01/23 02:05:56;;;;;;;5.30;1.80;;;5.70;1.00;;;;;;5038442;28;20223;-80
2024/01/23 02:08:23;;;;;;;7.83;1.80;;;5.70;99.90;;;;;;5035904;28;20210;-80
2024/01/23 02:10:49;;;;;;;10.77;2.70;;;5.70;99.90;;;;;;5036396;28;20210;-82
2024/01/23 02:13:18;;;;;;;7.90;1.80;;;5.70;99.90;;;;;;5037921;28;20211;-82
2024/01/23 02:15:44;;;;;;;10.53;2.20;;;6.00;99.90;;;;;;5035689;28;20229;-82
2024/01/23 02:18:11;;;;;;;6.30;1.90;;;5.70;99.90;;;;;;5038294;28;20204;-83
2024/01/23 02:20:38;;;;;;;6.40;1.70;;;5.80;99.90;;;;;;5037207;28;20206;-82
2024/01/23 02:23:05;;;;;;;11.90;2.23;;;6.00;1.00;;;;;;5036613;28;20726;-81
2024/01/23 02:25:33;;;;;;;9.33;2.17;;;6.00;1.00;;;;;;5036746;28;20890;-82
2024/01/23 02:28:00;;;;;;;7.77;2.40;;;6.10;1.00;;;;;;5035783;28;20238;-80
2024/01/23 02:30:27;;;;;;;12.03;2.97;;;6.10;1.00;;;;;;5034888;28;21276;-81
2024/01/23 02:32:54;;;;;;;9.80;1.90;;;6.30;1.00;;;;;;5035656;28;20676;-81
2024/01/23 02:35:20;;;;;;;7.97;2.20;;;6.20;99.90;;;;;;5035529;28;20227;-83
2024/01/23 02:37:47;;;;;;;12.30;3.50;;;6.10;99.90;;;;;;5041279;28;20203;-83
2024/01/23 02:40:14;;;;;;;14.10;2.97;;;6.10;99.90;;;;;;5038649;28;20209;-83
2024/01/23 02:42:42;;;;;;;15.17;3.50;;;6.10;96.00;;;;;;5037633;28;20595;-81
2024/01/23 02:45:09;;;;;;;10.67;2.70;;;6.10;96.60;;;;;;5035415;28;20231;-84
2024/01/23 02:47:36;;;;;;;11.10;2.80;;;6.10;93.50;;;;;;5039519;28;20211;-80
2024/01/23 02:50:03;;;;;;;6.93;2.40;;;6.10;1.00;;;;;;5039232;28;20237;-82
2024/01/23 02:52:31;;;;;;;10.57;3.03;;;6.10;1.00;;;;;;5035888;28;20206;-82
2024/01/23 02:54:59;;;;;;;12.57;3.00;;;6.10;1.00;;;;;;5035186;28;20262;-82
2024/01/23 02:57:26;;;;;;;11.57;2.73;;;6.50;1.00;;;;;;5039582;28;20208;-81
2024/01/23 02:59:54;;;;;;;10.93;2.47;;;6.20;1.00;;;;;;5037213;28;20708;-82
2024/01/23 03:02:22;;;;;;;17.57;3.50;;;6.30;1.00;;;;;;5034242;28;20314;-80
2024/01/23 03:04:48;;;;;;;16.50;3.40;;;6.30;1.00;;;;;;5037820;28;20219;-82
2024/01/23 03:07:16;;;;;;;10.27;2.40;;;6.20;1.00;;;;;;5034535;28;20212;-82
2024/01/23 03:09:43;;;;;;;11.27;2.47;;;6.30;99.90;;;;;;5030909;28;20243;-81
2024/01/23 03:12:16;;;;;;;10.63;2.60;;;6.40;99.90;;;;;;5035844;28;20605;-80
2024/01/23 03:14:43;;;;;;;20.93;3.37;;;6.40;99.90;;;;;;5034567;28;20204;-80
2024/01/23 03:17:12;;;;;;;12.43;2.27;;;6.50;99.90;;;;;;5035788;28;20207;-81
2024/01/23 03:19:39;;;;;;;11.27;2.67;;;6.30;50.00;;;;;;5037100;28;20198;-81
2024/01/23 03:22:06;;;;;;;19.43;3.03;;;6.30;1.00;;;;;;5033174;28;20684;-80
2024/01/23 03:24:33;;;;;;;13.00;2.83;;;6.30;1.00;;;;;;5033899;28;20204;-81
2024/01/23 03:27:01;;;;;;;11.83;2.40;;;6.30;1.00;;;;;;5032919;28;20697;-83
2024/01/23 03:29:30;;;;;;;11.60;2.13;;;6.30;1.00;;;;;;5039876;28;20269;-82
2024/01/23 03:31:57;;;;;;;14.67;2.83;;;6.30;46.00;;;;;;5034565;28;20298;-83
2024/01/23 03:34:25;;;;;;;11.73;2.40;;;6.20;99.90;;;;;;5034141;28;20207;-83
2024/01/23 03:36:52;;;;;;;10.80;2.63;;;6.20;99.90;;;;;;5039403;28;20254;-81
2024/01/23 03:39:19;;;;;;;11.17;3.53;;;6.20;39.80;;;;;;5032849;28;20195;-84
2024/01/23 03:41:45;;;;;;;12.47;2.77;;;6.30;1.00;;;;;;5039527;28;20196;-81
2024/01/23 03:44:12;;;;;;;11.47;2.80;;;6.20;1.00;;;;;;5035064;28;20207;-82
2024/01/23 03:46:39;;;;;;;11.93;2.23;;;6.20;25.00;;;;;;5037715;28;20233;-80
2024/01/23 03:49:06;;;;;;;12.80;2.37;;;6.20;93.90;;;;;;5034173;28;20306;-83
2024/01/23 03:51:34;;;;;;;9.50;2.33;;;6.20;99.90;;;;;;5034426;28;20290;-82
2024/01/23 03:54:00;;;;;;;9.93;2.43;;;6.20;99.90;;;;;;5034501;28;20202;-83
2024/01/23 03:56:27;;;;;;;9.50;2.40;;;6.10;99.90;;;;;;5036914;28;20318;-82
2024/01/23 03:58:54;;;;;;;10.87;2.67;;;6.10;99.90;;;;;;5035886;28;20216;-83
2024/01/23 04:01:21;;;;;;;16.30;3.73;;;6.10;1.00;;;;;;5038787;28;20206;-85
2024/01/23 04:03:47;;;;;;;14.13;2.93;;;6.10;1.00;;;;;;5035773;28;20203;-83
2024/01/23 04:06:14;;;;;;;12.03;2.83;;;6.10;99.90;;;;;;5037244;28;20266;-82
2024/01/23 04:08:42;;;;;;;14.17;2.77;;;6.20;99.90;;;;;;5035302;28;20219;-81
2024/01/23 04:11:09;;;;;;;19.03;3.90;;;6.10;1.00;;;;;;5034551;28;20295;-80
2024/01/23 04:13:36;;;;;;;13.80;2.77;;;6.10;99.90;;;;;;5036195;28;20299;-82
2024/01/23 04:16:05;;;;;;;14.13;2.97;;;6.20;99.90;;;;;;5034628;28;20238;-82
2024/01/23 04:18:32;;;;;;;14.77;3.30;;;6.20;11.80;;;;;;5040024;28;20221;-81
2024/01/23 04:20:59;;;;;;;13.53;2.60;;;6.20;1.00;;;;;;5036374;28;20658;-83
2024/01/23 04:23:26;;;;;;;10.70;2.30;;;6.30;1.00;;;;;;5039553;28;21176;-82
2024/01/23 04:25:54;;;;;;;9.63;2.90;;;6.30;1.00;;;;;;5039264;28;20216;-81
2024/01/23 04:28:21;;;;;;;13.20;2.10;;;6.30;1.00;;;;;;5036317;28;20571;-83
2024/01/23 04:30:52;;;;;;;11.23;2.70;;;6.30;1.00;;;;;;5036873;28;20223;-82
2024/01/23 04:33:19;;;;;;;11.73;2.13;;;6.30;1.00;;;;;;5036796;28;20207;-82
2024/01/23 04:35:46;;;;;;;9.97;2.37;;;6.30;1.00;;;;;;5036267;28;20230;-83
2024/01/23 04:38:14;;;;;;;10.30;2.13;;;6.30;1.00;;;;;;5035270;28;20322;-81
2024/01/23 04:40:40;;;;;;;13.73;2.90;;;6.40;1.00;;;;;;5036253;28;20282;-82
2024/01/23 04:43:09;;;;;;;10.53;2.60;;;6.30;1.00;;;;;;5034150;28;20210;-83
2024/01/23 04:45:35;;;;;;;9.20;2.10;;;6.30;1.00;;;;;;5033769;28;20277;-82
2024/01/23 04:48:02;;;;;;;11.33;2.23;;;6.30;1.00;;;;;;5038535;28;20672;-83
2024/01/23 04:50:29;;;;;;;16.13;2.90;;;6.30;1.00;;;;;;5037937;28;20531;-83
2024/01/23 04:52:57;;;;;;;14.90;3.23;;;6.30;1.00;;;;;;5040978;28;20204;-80
2024/01/23 04:55:24;;;;;;;10.57;2.27;;;6.20;1.00;;;;;;5034511;28;20227;-82
2024/01/23 04:57:51;;;;;;;10.13;2.10;;;6.20;1.00;;;;;;5034324;28;20199;-81
2024/01/23 05:00:20;;;;;;;7.17;2.07;;;6.20;1.00;;;;;;5036468;28;20207;-82
2024/01/23 05:02:46;;;;;;;8.17;2.40;;;6.10;1.00;;;;;;5035318;28;20235;-82
2024/01/23 05:05:13;;;;;;;7.83;2.10;;;6.10;1.00;;;;;;5041397;28;20223;-82
2024/01/23 05:07:40;;;;;;;10.23;2.03;;;6.10;60.20;;;;;;5038835;28;20203;-82
2024/01/23 05:10:08;;;;;;;9.03;1.90;;;6.10;87.10;;;;;;5038305;28;20243;-84
2024/01/23 05:12:34;;;;;;;14.93;2.70;;;6.10;1.00;;;;;;5038613;28;20693;-83
2024/01/23 05:15:03;;;;;;;13.00;2.20;;;6.10;1.00;;;;;;5042908;28;20250;-84
2024/01/23 05:17:32;;;;;;;12.50;2.13;;;6.20;1.00;;;;;;5046957;28;20513;-84
2024/01/23 05:19:58;;;;;;;10.73;2.40;;;6.20;1.00;;;;;;5041488;28;20693;-82
2024/01/23 05:22:25;;;;;;;12.70;2.67;;;6.20;1.00;;;;;;5045480;28;20204;-83
2024/01/23 05:24:52;;;;;;;10.27;4.00;;;6.20;1.00;;;;;;5044680;28;20225;-82
2024/01/23 05:27:19;;;;;;;15.37;3.23;;;6.20;1.00;;;;;;5040429;28;20211;-84
2024/01/23 05:29:46;;;;;;;9.10;2.67;;;6.20;1.00;;;;;;5040306;28;20218;-83
2024/01/23 05:32:13;;;;;;;12.07;2.40;;;6.20;1.00;;;;;;5042851;28;20746;-83
2024/01/23 05:34:41;;;;;;;14.10;2.30;;;6.10;1.00;;;;;;5044278;28;20661;-84
2024/01/23 05:37:08;;;;;;;12.10;2.50;;;6.20;1.00;;;;;;5040757;28;20204;-82
2024/01/23 05:39:37;;;;;;;18.73;3.17;;;6.20;1.00;;;;;;5039274;28;20930;-84
2024/01/23 05:42:04;;;;;;;12.23;2.83;;;6.30;1.00;;;;;;5039261;28;20211;-83
2024/01/23 05:44:31;;;;;;;11.70;2.90;;;6.20;1.00;;;;;;5038938;28;20294;-85
2024/01/23 05:46:58;;;;;;;13.57;2.73;;;6.30;1.00;;;;;;5038346;28;20204;-83
2024/01/23 05:49:25;;;;;;;12.80;2.83;;;6.30;1.00;;;;;;5037639;28;20199;-86
2024/01/23 05:51:53;;;;;;;16.93;2.70;;;6.40;1.00;;;;;;5038395;28;20235;-84
2024/01/23 05:54:20;;;;;;;14.10;2.90;;;6.30;1.00;;;;;;5038197;28;20250;-82
2024/01/23 05:56:47;;;;;;;12.50;2.93;;;6.40;1.00;;;;;;5037552;28;20220;-82
2024/01/23 05:59:14;;;;;;;14.77;2.70;;;6.30;1.00;;;;;;5040750;28;20231;-83
2024/01/23 06:01:40;;;;;;;12.40;2.73;;;6.40;1.00;;;;;;5040551;28;20202;-84
2024/01/23 06:04:08;;;;;;;15.50;2.53;;;6.50;1.00;;;;;;5038462;28;20207;-83
2024/01/23 06:06:40;;;;;;;18.70;2.70;;;6.50;1.00;;;;;;5038667;28;20227;-82
2024/01/23 06:09:09;;;;;;;12.77;3.60;;;6.50;1.00;;;;;;5039525;28;20200;-83
2024/01/23 06:11:36;;;;;;;21.67;3.77;;;6.60;1.00;;;;;;5038999;28;20220;-83
2024/01/23 06:14:03;;;;;;;14.90;2.70;;;6.60;1.00;;;;;;5038955;28;20208;-83
2024/01/23 06:16:29;;;;;;;13.10;2.97;;;6.50;1.00;;;;;;5046262;28;20246;-83
2024/01/23 06:18:56;;;;;;;13.30;2.40;;;6.60;1.00;;;;;;5042400;28;20291;-84
2024/01/23 06:21:23;;;;;;;15.43;2.93;;;6.60;1.00;;;;;;5040029;28;20191;-84
2024/01/23 06:23:50;;;;;;;16.10;2.80;;;6.50;1.00;;;;;;5043297;28;20199;-83
2024/01/23 06:26:18;;;;;;;16.97;3.23;;;6.50;1.00;;;;;;5041293;28;20227;-81
2024/01/23 06:28:45;;;;;;;16.93;3.57;;;6.60;1.00;;;;;;5041248;28;20658;-82
2024/01/23 06:31:12;;;;;;;13.40;2.67;;;6.60;1.00;;;;;;5036487;28;20225;-83
2024/01/23 06:33:39;;;;;;;11.90;2.37;;;6.60;99.90;;;;;;5045419;28;20195;-83
2024/01/23 06:36:06;;;;;;;14.33;2.80;;;6.70;99.90;;;;;;5038142;28;20250;-84
2024/01/23 06:38:34;;;;;;;21.30;3.47;;;6.60;99.90;;;;;;5036768;28;20315;-83
2024/01/23 06:41:00;;;;;;;16.80;2.73;;;6.60;99.90;;;;;;5038967;28;20200;-82
2024/01/23 06:43:29;;;;;;;15.53;3.10;;;6.80;99.90;;;;;;5037189;28;20218;-82
2024/01/23 06:45:57;;;;;;;10.63;2.60;;;6.60;99.90;;;;;;5037904;28;20219;-83
2024/01/23 06:48:23;;;;;;;12.90;2.57;;;6.70;1.00;;;;;;5036884;28;20207;-83
2024/01/23 06:50:50;;;;;;;14.53;3.00;;;6.60;1.00;;;;;;5038179;28;20238;-83
2024/01/23 06:53:17;;;;;;;16.60;2.87;;;6.60;1.00;;;;;;5037264;28;20207;-81
2024/01/23 06:55:44;;;;;;;11.33;2.53;;;6.60;1.00;;;;;;5036366;28;20230;-82
2024/01/23 06:58:10;;;;;;;11.07;2.70;;;6.60;99.90;;;;;;5037070;28;20207;-83
2024/01/23 07:00:39;;;;;;;21.37;4.10;;;6.60;99.90;;;;;;5037797;28;20215;-84
2024/01/23 07:03:08;;;;;;;17.10;2.70;;;6.60;99.90;;;;;;5038322;28;20227;-82
2024/01/23 07:05:34;;;;;;;18.43;2.87;;;6.70;99.90;;;;;;5039090;28;20689;-84
2024/01/23 07:08:01;;;;;;;17.90;5.27;;;6.60;99.90;;;;;;5038982;28;20203;-83
2024/01/23 07:10:28;;;;;;;17.03;3.07;;;6.60;99.90;;;;;;5037432;28;20250;-84
2024/01/23 07:12:55;;;;;;;14.50;2.70;;;6.70;99.90;;;;;;5036895;28;20207;-82
2024/01/23 07:15:22;;;;;;;15.67;3.07;;;6.70;99.90;;;;;;5039872;28;20230;-82
2024/01/23 07:17:51;;;;;;;14.30;2.87;;;6.70;1.00;;;;;;5050420;28;20657;-83
2024/01/23 07:20:18;;;;;;;17.10;3.10;;;6.60;99.90;;;;;;5041449;28;20207;-82
2024/01/23 07:22:45;;;;;;;13.77;3.03;;;6.80;99.90;;;;;;5036264;28;20681;-83
2024/01/23 07:25:13;;;;;;;15.03;2.80;;;6.70;99.90;;;;;;5040083;28;20223;-82
2024/01/23 07:27:39;;;;;;;11.97;2.53;;;6.60;1.00;;;;;;5044197;28;20199;-83
2024/01/23 07:30:07;;;;;;;15.27;2.80;;;6.70;99.90;;;;;;5037329;28;20227;-83
2024/01/23 07:32:34;;;;;;;7.80;3.10;;;6.70;99.90;;;;;;5042642;28;20568;-85
2024/01/23 07:35:02;;;;;;;10.90;3.00;;;7.10;99.90;;;;;;5035729;28;20586;-82
2024/01/23 07:37:29;;;;;;;20.17;4.27;;;6.70;99.90;;;;;;5034783;28;20651;-82
2024/01/23 07:39:56;;;;;;;19.23;4.47;;;6.70;99.90;;;;;;5037677;28;20210;-82
2024/01/23 07:42:23;;;;;;;16.93;3.73;;;6.60;99.90;;;;;;5036585;28;20206;-83
2024/01/23 07:44:49;;;;;;;15.37;3.63;;;6.70;99.90;;;;;;5036409;28;20227;-83
2024/01/23 07:47:16;;;;;;;12.20;2.63;;;6.80;99.90;;;;;;5034662;28;20233;-82
2024/01/23 07:49:43;;;;;;;18.60;3.90;;;6.80;99.90;;;;;;5035090;28;20580;-83
2024/01/23 07:52:11;;;;;;;15.53;2.90;;;6.80;99.90;;;;;;5035914;28;20227;-83
2024/01/23 07:54:38;;;;;;;15.47;3.10;;;6.70;99.90;;;;;;5035191;28;20199;-84
2024/01/23 07:57:05;;;;;;;15.67;3.20;;;6.70;1.00;;;;;;5034882;28;20422;-84
2024/01/23 07:59:32;;;;;;;17.23;3.30;;;6.70;1.00;;;;;;5034748;28;20218;-83
2024/01/23 08:01:58;;;;;;;16.23;3.20;;;6.60;1.00;;;;;;5037471;28;20210;-83
2024/01/23 08:04:25;;;;;;;20.03;3.63;;;6.70;1.00;;;;;;5036428;28;20282;-84
2024/01/23 08:06:52;;;;;;;18.20;4.90;;;6.70;1.00;;;;;;5036303;28;20211;-83
2024/01/23 08:09:20;;;;;;;13.57;3.50;;;6.80;1.00;;;;;;5035199;28;20623;-81
2024/01/23 08:11:48;;;;;;;11.00;2.77;;;6.90;1.00;;;;;;5034012;28;20224;-84
2024/01/23 08:14:15;;;;;;;17.67;3.37;;;6.80;1.00;;;;;;5035343;28;20257;-82
2024/01/23 08:16:44;;;;;;;18.13;3.97;;;6.80;1.00;;;;;;5046733;28;20589;-85
2024/01/23 08:19:11;;;;;;;18.33;3.77;;;6.80;1.00;;;;;;5034738;28;20254;-82
2024/01/23 08:21:38;;;;;;;13.50;3.70;;;6.80;1.00;;;;;;5043880;28;20556;-83
2024/01/23 08:24:06;;;;;;;15.37;2.83;;;6.80;1.00;;;;;;5034785;28;20200;-81
2024/01/23 08:26:34;;;;;;;16.77;3.40;;;6.90;1.00;;;;;;5038366;28;20223;-81
2024/01/23 08:29:01;;;;;;;15.77;3.40;;;6.90;99.90;;;;;;5042697;28;20199;-82
2024/01/23 08:31:27;;;;;;;16.47;3.20;;;7.00;99.90;;;;;;5045647;28;20235;-81
2024/01/23 08:33:54;;;;;;;17.13;2.80;;;7.00;99.90;;;;;;5036153;28;20204;-83
2024/01/23 08:36:21;;;;;;;10.97;2.63;;;7.00;99.90;;;;;;5037688;28;20216;-82
2024/01/23 08:38:48;;;;;;;18.00;3.77;;;7.00;99.90;;;;;;5033696;28;20204;-83
2024/01/23 08:41:15;;;;;;;18.97;3.07;;;7.00;99.90;;;;;;5034850;28;20191;-81
2024/01/23 08:43:43;;;;;;;14.97;2.90;;;7.00;99.90;;;;;;5037884;28;20227;-82
2024/01/23 08:46:10;;;;;;;13.40;2.93;;;7.00;99.90;;;;;;5034096;28;20222;-81
2024/01/23 08:48:36;;;;;;;16.10;3.73;;;7.00;99.90;;;;;;5044190;28;20650;-82
2024/01/23 08:51:04;;;;;;;12.60;2.90;;;7.10;99.90;;;;;;5034386;28;20319;-82
2024/01/23 08:53:31;;;;;;;16.73;3.33;;;7.00;99.90;;;;;;5033218;28;20235;-81
2024/01/23 08:55:58;;;;;;;15.27;2.90;;;7.00;99.90;;;;;;5038596;28;20226;-81
2024/01/23 08:58:25;;;;;;;13.17;2.77;;;7.00;1.00;;;;;;5035004;28;20209;-82
2024/01/23 09:00:53;;;;;;;8.80;2.70;;;6.90;1.00;;;;;;5035298;28;20202;-81
2024/01/23 09:03:21;;;;;;;16.10;4.10;;;6.80;1.00;;;;;;5034189;28;20202;-81
2024/01/23 09:05:48;;;;;;;14.07;3.23;;;6.90;1.00;;;;;;5034289;28;20314;-82
2024/01/23 09:08:15;;;;;;;17.87;3.37;;;6.80;1.00;;;;;;5033662;28;20206;-81
2024/01/23 09:10:42;;;;;;;20.60;2.73;;;6.80;1.00;;;;;;5033648;28;20222;-83
2024/01/23 09:13:09;;;;;;;15.20;3.37;;;6.80;30.60;;;;;;5034215;28;20275;-81
2024/01/23 09:15:36;;;;;;;19.60;3.87;;;6.90;1.00;;;;;;5034693;28;20234;-81
2024/01/23 09:18:05;;;;;;;14.30;2.73;;;6.80;99.90;;;;;;5047636;28;20214;-80
2024/01/23 09:20:32;;;;;;;18.70;3.67;;;6.80;98.80;;;;;;5042146;28;20287;-81
2024/01/23 09:22:59;;;;;;;15.37;3.80;;;6.90;47.70;;;;;;5039945;28;20195;-82
2024/01/23 09:25:26;;;;;;;13.23;3.70;;;6.80;99.90;;;;;;5040071;28;20219;-82
2024/01/23 09:27:53;;;;;;;15.90;3.47;;;6.90;99.90;;;;;;5046263;28;20199;-83
2024/01/23 09:30:19;;;;;;;15.83;3.30;;;6.90;1.00;;;;;;5040515;28;20202;-82
2024/01/23 09:32:46;;;;;;;15.40;3.27;;;6.90;1.00;;;;;;5038163;28;20229;-82
2024/01/23 09:35:14;;;;;;;13.07;3.03;;;6.90;99.90;;;;;;5034207;28;20238;-81
2024/01/23 09:37:41;;;;;;;20.47;4.87;;;6.90;99.90;;;;;;5039028;28;20196;-82
2024/01/23 09:40:09;;;;;;;18.37;3.53;;;6.90;99.90;;;;;;5032904;28;20200;-82
2024/01/23 09:42:39;;;;;;;17.43;4.10;;;6.90;1.00;;;;;;5034467;28;20665;-82
2024/01/23 09:45:15;;;;;;;12.73;3.10;;;6.90;99.90;;;;;;5034900;28;20234;-82
2024/01/23 09:47:42;;;;;;;21.80;3.90;;;6.90;99.90;;;;;;5041292;28;20206;-82
2024/01/23 09:50:12;;;;;;;18.80;3.00;;;7.00;99.90;;;;;;5039632;28;20207;-82
2024/01/23 09:52:42;;;;;;;17.33;4.20;;;7.00;99.90;;;;;;5037677;28;20220;-81
2024/01/23 09:55:09;;;;;;;15.63;3.07;;;8.20;95.20;;;;;;5037385;28;20227;-81
2024/01/23 09:57:38;;;;;;;11.70;3.10;;;7.10;1.00;;;;;;5039740;28;20199;-80
2024/01/23 10:00:11;;;;;;;17.33;3.77;;;7.10;1.00;;;;;;5037786;28;20212;-81
2024/01/23 10:02:39;;;;;;;19.13;3.30;;;7.20;1.00;;;;;;5038290;28;20227;-82
2024/01/23 10:05:08;;;;;;;16.10;3.67;;;7.20;1.00;;;;;;5036574;28;20310;-81
2024/01/23 10:07:35;;;;;;;15.43;3.37;;;7.30;1.00;;;;;;5040233;28;20204;-82
2024/01/23 10:10:09;;;;;;;18.80;3.60;;;7.30;1.00;;;;;;5037592;28;20577;-81
2024/01/23 10:12:37;;;;;;;15.73;3.23;;;7.30;1.00;;;;;;5036532;28;20224;-82
2024/01/23 10:15:05;;;;;;;16.87;3.70;;;7.20;1.00;;;;;;5036931;28;20713;-80
2024/01/23 10:17:31;;;;;;;12.53;3.37;;;7.30;1.00;;;;;;5043968;28;20230;-82
2024/01/23 10:19:58;;;;;;;19.50;3.67;;;7.40;1.00;;;;;;5044477;28;20678;-82
2024/01/23 10:22:25;;;;;;;16.80;3.40;;;7.40;1.00;;;;;;5037247;28;20238;-82
2024/01/23 10:24:53;;;;;;;16.33;4.03;;;7.40;1.00;;;;;;5037571;28;20223;-82
2024/01/23 10:27:21;;;;;;;13.83;3.07;;;7.40;1.00;;;;;;5051964;28;20204;-81
2024/01/23 10:29:50;;;;;;;13.23;3.47;;;7.50;1.00;;;;;;5048047;28;20205;-82
2024/01/23 10:32:17;;;;;;;17.67;3.50;;;7.50;1.00;;;;;;5050364;28;20222;-82
2024/01/23 10:34:44;;;;;;;21.60;4.10;;;7.50;1.00;;;;;;5041261;28;20207;-82
2024/01/23 10:37:11;;;;;;;18.43;3.67;;;7.60;1.00;;;;;;5043909;28;20203;-82
2024/01/23 10:39:38;;;;;;;17.57;4.57;;;7.60;1.00;;;;;;5041775;28;20580;-82
2024/01/23 10:42:07;;;;;;;26.67;3.87;;;7.60;1.00;;;;;;5041811;28;20200;-83
2024/01/23 10:44:37;;;;;;;15.97;3.77;;;7.60;1.00;;;;;;5036027;28;20226;-82
2024/01/23 10:47:05;;;;;;;16.60;3.13;;;7.60;1.00;;;;;;5036021;28;20203;-81
2024/01/23 10:49:31;;;;;;;19.37;3.87;;;7.60;1.00;;;;;;5036230;28;20200;-83
2024/01/23 10:52:03;;;;;;;15.93;3.30;;;7.70;1.00;;;;;;5036058;28;20223;-82
2024/01/23 10:54:33;;;;;;;16.53;4.23;;;7.70;99.90;;;;;;5038803;28;20199;-82
2024/01/23 10:57:04;;;;;;;15.07;3.30;;;7.80;99.90;;;;;;5038422;28;20203;-81
2024/01/23 10:59:31;;;;;;;17.60;3.40;;;7.80;99.90;;;;;;5036835;28;20212;-82
2024/01/23 11:02:05;;;;;;;13.47;3.23;;;7.80;99.90;;;;;;5037756;28;20235;-80
2024/01/23 11:04:32;;;;;;;20.17;3.87;;;7.80;99.90;;;;;;5031711;28;20196;-81
2024/01/23 11:07:03;;;;;;;12.43;3.00;;;7.90;99.90;;;;;;5035739;28;20204;-83
2024/01/23 11:09:39;;;;;;;15.63;3.93;;;7.90;99.90;;;;;;5031409;28;20294;-82
2024/01/23 11:12:16;;;;;;;19.47;4.00;;;7.90;99.90;;;;;;5035377;28;20223;-81
2024/01/23 11:14:47;;;;;;;21.87;3.40;;;7.90;99.90;;;;;;5036990;28;20203;-82
2024/01/23 11:17:17;;;;;;;17.03;3.53;;;7.90;99.90;;;;;;5035920;28;20273;-82
2024/01/23 11:19:46;;;;;;;22.10;3.97;;;7.90;99.90;;;;;;5035664;28;20257;-82
2024/01/23 11:22:13;;;;;;;16.00;3.97;;;7.90;99.90;;;;;;5035614;28;20218;-81
2024/01/23 11:24:41;;;;;;;16.43;3.60;;;7.90;99.90;;;;;;5035418;28;20200;-81
2024/01/23 11:27:08;;;;;;;19.53;3.87;;;8.00;99.90;;;;;;5048060;28;20214;-82
2024/01/23 11:29:35;;;;;;;19.20;4.67;;;8.00;99.90;;;;;;5028752;28;20195;-82
2024/01/23 11:32:15;;;;;;;19.37;3.90;;;8.10;99.90;;;;;;5042991;28;20212;-82
2024/01/23 11:34:44;;;;;;;26.40;5.77;;;8.00;99.90;;;;;;5032306;28;20569;-82
2024/01/23 11:37:35;;;;;;;18.53;3.90;;;8.10;99.90;;;;;;5043244;28;20208;-81
2024/01/23 11:40:05;;;;;;;16.17;3.57;;;8.20;99.90;;;;;;5037284;28;20199;-81
2024/01/23 11:42:42;;;;;;;27.63;4.70;;;8.10;99.90;;;;;;5039684;28;20558;-81
2024/01/23 11:45:22;;;;;;;18.03;4.00;;;8.30;99.90;;;;;;5036113;28;20229;-82
2024/01/23 11:47:54;;;;;;;22.70;4.63;;;8.20;99.90;;;;;;5041803;28;20199;-82
2024/01/23 11:50:22;;;;;;;15.93;4.47;;;8.20;99.90;;;;;;5039997;28;20603;-81
2024/01/23 11:52:52;;;;;;;16.50;4.23;;;8.20;98.70;;;;;;5045010;28;20234;-82
2024/01/23 11:55:19;;;;;;;20.07;5.07;;;8.20;99.90;;;;;;5034622;28;20223;-82
2024/01/23 11:57:49;;;;;;;14.03;3.10;;;8.30;99.90;;;;;;5038826;28;20265;-81
2024/01/23 12:00:16;;;;;;;19.10;3.93;;;8.60;80.50;;;;;;5035023;28;20218;-82
2024/01/23 12:02:44;;;;;;;14.47;3.50;;;8.90;12.60;;;;;;5034016;28;20270;-82
2024/01/23 12:05:11;;;;;;;15.90;3.40;;;8.60;1.00;;;;;;5037968;28;20233;-81
2024/01/23 12:07:40;;;;;;;26.50;3.73;;;8.60;1.00;;;;;;5041655;28;20219;-82
2024/01/23 12:10:08;;;;;;;19.90;4.00;;;8.60;1.00;;;;;;5034833;28;20217;-83
2024/01/23 12:12:34;;;;;;;20.30;4.03;;;8.40;1.00;;;;;;5035264;28;20230;-83
2024/01/23 12:15:01;;;;;;;11.37;3.63;;;8.40;1.00;;;;;;5033086;28;20219;-83
2024/01/23 12:17:28;;;;;;;14.30;3.93;;;8.30;1.00;;;;;;5036312;28;20292;-82
2024/01/23 12:19:55;;;;;;;14.13;3.10;;;8.30;1.00;;;;;;5041786;28;20202;-82
2024/01/23 12:22:22;;;;;;;14.73;3.40;;;8.30;1.00;;;;;;5042400;28;20199;-81
2024/01/23 12:24:51;;;;;;;18.40;3.77;;;8.40;1.00;;;;;;5034382;28;20223;-81
2024/01/23 12:27:20;;;;;;;16.47;3.40;;;8.30;1.00;;;;;;5041864;28;20203;-82
2024/01/23 12:29:48;;;;;;;18.70;4.33;;;8.30;1.00;;;;;;5044472;28;20226;-82
2024/01/23 12:32:15;;;;;;;19.23;3.30;;;8.30;1.00;;;;;;5035460;28;20223;-82
2024/01/23 12:34:42;;;;;;;16.13;3.47;;;8.80;1.00;;;;;;5040549;28;20203;-82
2024/01/23 12:37:09;;;;;;;13.53;3.07;;;8.50;1.00;;;;;;5041718;28;20206;-82
2024/01/23 12:39:36;;;;;;;14.63;4.10;;;8.40;1.00;;;;;;5040369;28;20211;-82
2024/01/23 12:42:04;;;;;;;13.90;3.77;;;8.40;1.00;;;;;;5040618;28;20207;-83
2024/01/23 12:44:31;;;;;;;19.57;4.30;;;8.30;1.00;;;;;;5041952;28;20204;-81
2024/01/23 12:46:58;;;;;;;18.80;4.77;;;8.20;1.00;;;;;;5042639;28;20210;-82
2024/01/23 12:49:24;;;;;;;17.57;3.30;;;8.10;1.00;;;;;;5032694;28;20203;-82
2024/01/23 12:51:51;;;;;;;18.20;4.60;;;8.00;1.00;;;;;;5033088;28;20230;-83
2024/01/23 12:54:18;;;;;;;19.33;3.97;;;8.10;1.00;;;;;;5039416;28;20199;-82
2024/01/23 12:56:45;;;;;;;19.93;3.70;;;8.10;1.00;;;;;;5036030;28;20219;-81